Polis, Cyprus
Current Conditions -  °F | °C
As of 3:00 AM on Saturday 25 Oct 2014 (Local Time) from LCPH Reporting Station
Few Clouds Few Clouds  
Wind Chill: 68°   Ceiling: Unl
Heat Index: 68°   Visibility: 6mi
Dew Point: 54°   Wind: 9mph
Humidity: 60%   Direction: 60°ENE
Pressure: 29.97"   Gusts: NA
Location:  35.03°N, 32.41°E
Report Text: LCPH 250000Z 06008KT 9999 FEW020 20/12 Q1015
Loading
Personal Weather Stations






























Interactive Weather Map New forecast layout! Learn more

10-Day Weather Forecast

Advertisements
Track Severe Weather on mobile